createdAt,value
2022-11-09T00:01:08.244Z,89.58
2022-11-09T00:03:20.728Z,90.84
2022-11-09T00:05:32.396Z,91.46
2022-11-09T00:07:44.505Z,92.47
2022-11-09T00:09:56.693Z,92.88
2022-11-09T00:12:08.648Z,90.84
2022-11-09T00:14:20.711Z,92.47
2022-11-09T00:16:32.805Z,92.07
2022-11-09T00:18:44.927Z,90.84
2022-11-09T00:20:56.989Z,89.98
2022-11-09T00:23:09.078Z,90.90
2022-11-09T00:25:21.154Z,89.26
2022-11-09T00:27:33.252Z,89.73
2022-11-09T00:29:45.338Z,88.82
2022-11-09T00:31:57.404Z,88.82
2022-11-09T00:34:10.473Z,87.49
2022-11-09T00:36:22.554Z,87.04
2022-11-09T00:38:34.641Z,87.35
2022-11-09T00:40:46.748Z,86.69
2022-11-09T00:42:58.794Z,85.98
2022-11-09T00:45:10.880Z,86.29
2022-11-09T00:47:22.951Z,86.08
2022-11-09T00:49:35.032Z,87.00
2022-11-09T00:51:47.191Z,86.80
2022-11-09T00:53:59.245Z,88.47
2022-11-09T00:56:11.328Z,89.59
2022-11-09T00:58:24.392Z,89.23
2022-11-09T01:00:36.513Z,88.61
2022-11-09T01:02:48.592Z,90.04
2022-11-09T01:05:00.637Z,90.49
2022-11-09T01:07:12.770Z,90.19
2022-11-09T01:09:24.798Z,89.67
2022-11-09T01:11:36.875Z,90.08
2022-11-09T01:13:48.985Z,91.11
2022-11-09T01:16:01.033Z,89.88
2022-11-09T01:18:13.100Z,88.71
2022-11-09T01:20:25.211Z,86.57
2022-11-09T01:22:37.296Z,88.88
2022-11-09T01:24:49.403Z,86.43
2022-11-09T01:27:01.460Z,85.92
2022-11-09T01:29:13.531Z,85.27
2022-11-09T01:31:25.615Z,85.37
2022-11-09T01:33:37.694Z,85.06
2022-11-09T01:35:49.799Z,84.34
2022-11-09T01:38:01.849Z,84.72
2022-11-09T01:40:13.935Z,85.57
2022-11-09T01:42:26.017Z,84.96
2022-11-09T01:44:38.399Z,83.84
2022-11-09T01:46:50.514Z,84.14
2022-11-09T01:49:02.566Z,83.84
2022-11-09T01:51:14.653Z,84.45
2022-11-09T01:53:26.740Z,85.82
2022-11-09T01:55:38.806Z,86.57
2022-11-09T01:57:50.919Z,87.43
2022-11-09T02:00:02.977Z,88.90
2022-11-09T02:02:15.057Z,89.65
2022-11-09T02:04:27.158Z,90.00
2022-11-09T02:06:39.315Z,90.41
2022-11-09T02:08:52.326Z,91.27
2022-11-09T02:11:04.377Z,91.73
2022-11-09T02:13:16.624Z,92.34
2022-11-09T02:15:28.521Z,93.00
2022-11-09T02:17:40.622Z,93.20
2022-11-09T02:19:52.711Z,93.76
2022-11-09T02:22:04.775Z,93.86
2022-11-09T02:24:16.850Z,94.32
2022-11-09T02:26:28.929Z,94.73
2022-11-09T02:28:42.018Z,95.24
2022-11-09T02:30:54.103Z,95.44
2022-11-09T02:33:06.174Z,95.54
2022-11-09T02:35:18.241Z,95.75
2022-11-09T02:37:30.336Z,95.86
2022-11-09T02:39:42.418Z,95.65
2022-11-09T02:41:54.535Z,95.65
2022-11-09T02:44:06.589Z,95.14
2022-11-09T02:46:18.658Z,95.44
2022-11-09T02:48:30.746Z,95.54
2022-11-09T02:50:42.815Z,95.54
2022-11-09T02:52:54.915Z,96.06
2022-11-09T02:55:06.988Z,96.16
2022-11-09T02:57:19.058Z,96.37
2022-11-09T02:59:31.132Z,96.16
2022-11-09T03:01:43.278Z,95.91
2022-11-09T03:03:55.331Z,95.70
2022-11-09T03:06:07.370Z,95.70
2022-11-09T03:08:19.474Z,94.64
2022-11-09T03:10:31.530Z,94.54
2022-11-09T03:12:43.607Z,94.08
2022-11-09T03:14:55.710Z,93.47
2022-11-09T03:17:07.805Z,93.98
2022-11-09T03:19:19.865Z,94.08
2022-11-09T03:21:31.955Z,93.67
2022-11-09T03:23:44.033Z,94.29
2022-11-09T03:25:56.130Z,94.39
2022-11-09T03:28:08.187Z,94.80
2022-11-09T03:30:21.276Z,94.39
2022-11-09T03:32:33.367Z,94.49
2022-11-09T03:34:45.449Z,94.90
2022-11-09T03:36:57.558Z,93.32
2022-11-09T03:39:09.606Z,92.91
2022-11-09T03:41:21.700Z,91.74
2022-11-09T03:43:33.770Z,91.91
2022-11-09T03:45:46.680Z,91.29
2022-11-09T03:47:57.971Z,91.70
2022-11-09T03:50:10.022Z,91.60
2022-11-09T03:52:22.091Z,91.29
2022-11-09T03:54:34.169Z,90.12
2022-11-09T03:56:46.257Z,90.12
2022-11-09T03:58:58.368Z,90.23
2022-11-09T04:01:10.433Z,89.61
2022-11-09T04:03:22.859Z,89.20
2022-11-09T04:05:34.596Z,87.84
2022-11-09T04:07:46.665Z,86.88
2022-11-09T04:09:58.764Z,86.77
2022-11-09T04:12:10.827Z,87.04
2022-11-09T04:14:22.945Z,87.29
2022-11-09T04:16:35.053Z,87.59
2022-11-09T04:18:47.113Z,88.31
2022-11-09T04:20:59.224Z,89.02
2022-11-09T04:23:11.274Z,89.37
2022-11-09T04:25:23.352Z,89.17
2022-11-09T04:27:35.452Z,88.24
2022-11-09T04:29:48.500Z,89.98
2022-11-09T04:32:01.592Z,89.78
2022-11-09T04:34:14.638Z,89.98
2022-11-09T04:36:26.748Z,90.19
2022-11-09T04:38:38.805Z,90.39
2022-11-09T04:40:50.948Z,89.58
2022-11-09T04:43:03.001Z,90.29
2022-11-09T04:45:15.056Z,91.20
2022-11-09T04:47:27.138Z,90.59
2022-11-09T04:49:40.218Z,90.29
2022-11-09T04:51:52.278Z,91.52
2022-11-09T04:54:05.367Z,91.00
2022-11-09T04:56:17.438Z,91.25
2022-11-09T04:58:29.512Z,90.19
2022-11-09T05:00:41.608Z,89.67
2022-11-09T05:02:53.730Z,89.06
2022-11-09T05:05:05.807Z,90.25
2022-11-09T05:07:17.932Z,89.73
2022-11-09T05:09:29.949Z,90.25
2022-11-09T05:11:42.019Z,89.32
2022-11-09T05:13:54.125Z,89.43
2022-11-09T05:16:06.209Z,89.32
2022-11-09T05:18:18.264Z,88.71
2022-11-09T05:20:30.344Z,88.92
2022-11-09T05:22:42.548Z,89.02
2022-11-09T05:24:54.511Z,90.04
2022-11-09T05:27:06.634Z,90.04
2022-11-09T05:29:19.562Z,88.61
2022-11-09T05:31:30.795Z,88.47
2022-11-09T05:33:42.881Z,88.98
2022-11-09T05:35:54.950Z,88.57
2022-11-09T05:38:07.058Z,88.26
2022-11-09T05:40:19.104Z,87.85
2022-11-09T05:42:31.190Z,88.98
2022-11-09T05:44:43.282Z,88.78
2022-11-09T05:46:55.369Z,88.88
2022-11-09T05:49:07.456Z,89.59
2022-11-09T05:51:19.519Z,88.78
2022-11-09T05:53:31.589Z,88.98
2022-11-09T05:55:43.671Z,89.18
2022-11-09T05:57:55.767Z,88.57
2022-11-09T06:00:10.963Z,88.57
2022-11-09T06:02:19.965Z,88.67
2022-11-09T06:04:32.009Z,88.57
2022-11-09T06:06:44.123Z,89.08
2022-11-09T06:08:56.288Z,89.08
2022-11-09T06:11:08.286Z,89.84
2022-11-09T06:13:20.518Z,89.23
2022-11-09T06:15:32.466Z,88.88
2022-11-09T06:17:44.504Z,89.08
2022-11-09T06:19:56.574Z,89.49
2022-11-09T06:22:08.686Z,89.53
2022-11-09T06:24:20.742Z,89.12
2022-11-09T06:26:32.828Z,88.98
2022-11-09T06:28:44.907Z,88.98
2022-11-09T06:30:56.983Z,89.28
2022-11-09T06:33:09.096Z,88.98
2022-11-09T06:35:21.154Z,89.39
2022-11-09T06:37:45.153Z,90.31
2022-11-09T06:39:57.238Z,90.41
2022-11-09T06:42:09.399Z,91.08
2022-11-09T06:44:21.419Z,93.16
2022-11-09T06:46:34.486Z,93.37
2022-11-09T06:48:49.467Z,94.53
2022-11-09T06:50:58.647Z,95.25
2022-11-09T06:53:10.732Z,95.76
2022-11-09T06:55:22.833Z,95.35
2022-11-09T06:57:34.889Z,96.47
2022-11-09T06:59:46.972Z,97.60
2022-11-09T07:02:01.713Z,97.95
2022-11-09T07:04:11.138Z,98.66
2022-11-09T07:06:23.226Z,98.56
2022-11-09T07:08:35.286Z,99.89
2022-11-09T07:10:47.374Z,99.58
2022-11-09T07:12:59.450Z,99.89
2022-11-09T07:15:11.543Z,99.99
2022-11-09T07:17:23.642Z,99.99
2022-11-09T07:19:35.701Z,99.99
2022-11-09T07:21:47.761Z,99.99
2022-11-09T07:23:59.844Z,99.99
2022-11-09T07:26:11.933Z,99.99
2022-11-09T07:28:24.018Z,99.99
2022-11-09T07:30:36.075Z,99.99
2022-11-09T07:33:49.186Z,99.99
2022-11-09T07:36:00.232Z,99.99
2022-11-09T07:38:12.315Z,99.99
2022-11-09T07:40:24.378Z,99.99
2022-11-09T07:42:37.470Z,99.99
2022-11-09T07:44:49.548Z,99.99
2022-11-09T07:47:01.612Z,99.99
2022-11-09T07:49:13.695Z,99.99
2022-11-09T07:51:26.103Z,99.99
2022-11-09T07:53:38.185Z,99.99
2022-11-09T07:55:50.286Z,99.99
2022-11-09T07:58:02.345Z,99.99
2022-11-09T08:00:14.515Z,99.99
2022-11-09T08:02:26.598Z,99.99
2022-11-09T08:04:38.593Z,99.99
2022-11-09T08:06:50.739Z,99.99
2022-11-09T08:09:02.741Z,99.99
2022-11-09T08:11:14.814Z,99.99
2022-11-09T08:13:26.887Z,99.99
2022-11-09T08:15:39.015Z,99.99
2022-11-09T08:17:51.158Z,99.99
2022-11-09T08:20:03.179Z,99.99
2022-11-09T08:22:15.251Z,99.99
2022-11-09T08:24:27.339Z,99.99
2022-11-09T08:26:40.247Z,99.99
2022-11-09T08:28:51.527Z,99.75
2022-11-09T08:31:03.566Z,99.34
2022-11-09T08:33:15.655Z,99.65
2022-11-09T08:35:27.733Z,99.95
2022-11-09T08:37:39.800Z,99.75
2022-11-09T08:39:51.909Z,99.04
2022-11-09T08:42:04.012Z,99.14
2022-11-09T08:44:16.089Z,98.89
2022-11-09T08:46:28.164Z,98.68
2022-11-09T08:48:40.247Z,98.79
2022-11-09T08:50:52.347Z,98.89
2022-11-09T08:53:04.419Z,99.29
2022-11-09T08:55:16.487Z,99.09
2022-11-09T08:57:28.574Z,99.29
2022-11-09T08:59:40.648Z,99.29
2022-11-09T09:01:52.789Z,99.09
2022-11-09T09:04:04.801Z,98.89
2022-11-09T09:06:16.884Z,99.19
2022-11-09T09:08:29.009Z,99.04
2022-11-09T09:10:41.099Z,98.94
2022-11-09T09:12:53.211Z,98.33
2022-11-09T09:15:05.252Z,98.13
2022-11-09T09:17:17.320Z,98.28
2022-11-09T09:19:29.400Z,98.08
2022-11-09T09:21:41.558Z,98.08
2022-11-09T09:23:53.586Z,97.47
2022-11-09T09:26:06.644Z,97.16
2022-11-09T09:28:19.039Z,97.22
2022-11-09T09:30:30.795Z,97.78
2022-11-09T09:32:42.901Z,97.32
2022-11-09T09:34:54.988Z,97.22
2022-11-09T09:37:07.033Z,97.12
2022-11-09T09:39:19.124Z,96.30
2022-11-09T09:41:31.208Z,96.41
2022-11-09T09:43:43.953Z,96.61
2022-11-09T09:45:55.688Z,96.51
2022-11-09T09:48:07.747Z,96.77
2022-11-09T09:50:20.744Z,96.36
2022-11-09T09:52:31.903Z,95.85
2022-11-09T09:54:43.992Z,95.61
2022-11-09T09:56:56.085Z,95.20
2022-11-09T09:59:08.147Z,94.85
2022-11-09T10:01:20.226Z,94.85
2022-11-09T10:03:32.321Z,94.04
2022-11-09T10:05:44.385Z,94.95
2022-11-09T10:07:56.506Z,93.79
2022-11-09T10:10:09.111Z,93.84
2022-11-09T10:12:20.644Z,92.93
2022-11-09T10:14:32.717Z,93.44
2022-11-09T10:16:44.782Z,92.63
2022-11-09T10:18:56.896Z,93.38
2022-11-09T10:21:08.949Z,94.20
2022-11-09T10:23:21.035Z,93.59
2022-11-09T10:25:57.838Z,93.89
2022-11-09T10:26:34.081Z,93.79
2022-11-09T10:29:14.421Z,94.40
2022-11-09T10:30:57.242Z,95.41
2022-11-09T10:33:09.335Z,94.50
2022-11-09T10:35:21.439Z,93.99
2022-11-09T10:37:33.506Z,94.80
2022-11-09T10:39:46.205Z,94.56
2022-11-09T10:41:57.647Z,91.97
2022-11-09T10:44:13.496Z,92.48
2022-11-09T10:46:21.828Z,93.35
2022-11-09T10:48:33.880Z,91.48
2022-11-09T10:50:45.962Z,91.85
2022-11-09T10:52:58.042Z,90.12
2022-11-09T10:55:10.138Z,88.76
2022-11-09T10:57:22.282Z,87.24
2022-11-09T10:59:34.349Z,89.17
2022-11-09T11:01:46.485Z,89.57
2022-11-09T11:03:58.504Z,88.86
2022-11-09T11:06:10.602Z,89.31
2022-11-09T11:08:22.696Z,89.21
2022-11-09T11:10:34.741Z,89.06
2022-11-09T11:12:46.824Z,87.65
2022-11-09T11:14:58.888Z,87.99
2022-11-09T11:17:10.970Z,88.80
2022-11-09T11:19:23.074Z,89.98
2022-11-09T11:21:35.131Z,90.24
2022-11-09T11:23:47.214Z,89.02
2022-11-09T11:25:59.288Z,88.62
2022-11-09T11:28:11.397Z,88.01
2022-11-09T11:30:23.483Z,87.97
2022-11-09T11:32:35.781Z,86.15
2022-11-09T11:35:00.243Z,87.18
2022-11-09T11:37:00.990Z,85.66
2022-11-09T11:39:13.095Z,85.96
2022-11-09T11:41:25.182Z,85.30
2022-11-09T11:43:37.248Z,85.78
2022-11-09T11:45:51.378Z,86.39
2022-11-09T11:48:02.392Z,87.40
2022-11-09T11:50:14.479Z,86.19
2022-11-09T11:52:26.580Z,85.68
2022-11-09T11:54:38.657Z,85.88
2022-11-09T11:56:50.723Z,85.33
2022-11-09T11:59:02.804Z,85.33
2022-11-09T12:01:14.994Z,85.13
2022-11-09T12:03:26.983Z,85.44
2022-11-09T12:05:39.042Z,85.74
2022-11-09T12:07:54.704Z,85.56
2022-11-09T12:10:03.291Z,84.25
2022-11-09T12:12:15.366Z,83.58
2022-11-09T12:14:27.464Z,85.30
2022-11-09T12:16:39.568Z,84.42
2022-11-09T12:18:51.650Z,85.33
2022-11-09T12:21:03.751Z,85.03
2022-11-09T12:23:15.806Z,85.27
2022-11-09T12:25:27.911Z,85.94
2022-11-09T12:27:39.968Z,85.94
2022-11-09T12:29:53.029Z,84.69
2022-11-09T12:32:05.117Z,82.97
2022-11-09T12:34:17.187Z,83.88
2022-11-09T12:36:29.353Z,84.04
2022-11-09T12:38:41.342Z,81.41
2022-11-09T12:40:53.429Z,81.11
2022-11-09T12:43:05.509Z,81.62
2022-11-09T12:45:17.599Z,82.56
2022-11-09T12:47:31.218Z,83.17
2022-11-09T12:49:42.758Z,83.82
2022-11-09T12:51:58.871Z,84.63
2022-11-09T12:54:06.942Z,84.22
2022-11-09T12:56:19.073Z,84.02
2022-11-09T12:58:31.109Z,84.56
2022-11-09T13:00:43.157Z,85.17
2022-11-09T13:02:55.253Z,85.48
2022-11-09T13:05:07.339Z,85.27
2022-11-09T13:07:20.321Z,86.19
2022-11-09T13:09:43.891Z,85.78
2022-11-09T13:10:32.766Z,86.69
2022-11-09T13:12:43.851Z,86.08
2022-11-09T13:14:55.960Z,84.47
2022-11-09T13:17:08.015Z,85.17
2022-11-09T13:19:20.397Z,84.73
2022-11-09T13:21:32.477Z,84.53
2022-11-09T13:24:00.792Z,84.73
2022-11-09T13:25:56.660Z,84.67
2022-11-09T13:28:08.724Z,85.58
2022-11-09T13:30:20.787Z,85.58
2022-11-09T13:32:32.877Z,85.27
2022-11-09T13:34:44.974Z,85.78
2022-11-09T13:36:57.062Z,85.68
2022-11-09T13:39:09.125Z,85.72
2022-11-09T13:41:22.359Z,85.31
2022-11-09T13:43:34.556Z,85.48
2022-11-09T13:45:46.348Z,85.58
2022-11-09T13:47:58.443Z,85.07
2022-11-09T13:50:11.374Z,84.67
2022-11-09T13:52:22.597Z,85.07
2022-11-09T13:54:34.661Z,85.58
2022-11-09T13:56:47.734Z,85.52
2022-11-09T13:58:59.849Z,86.02
2022-11-09T14:01:11.964Z,87.34
2022-11-09T14:03:23.987Z,86.57
2022-11-09T14:05:36.144Z,87.59
2022-11-09T14:07:48.140Z,88.03
2022-11-09T14:10:00.255Z,88.13
2022-11-09T14:12:12.291Z,88.95
2022-11-09T14:14:24.380Z,88.38
2022-11-09T14:16:36.495Z,88.68
2022-11-09T14:18:48.539Z,88.99
2022-11-09T14:21:00.631Z,88.68
2022-11-09T14:23:13.685Z,88.78
2022-11-09T14:25:26.720Z,89.33
2022-11-09T14:27:37.854Z,89.74
2022-11-09T14:29:49.936Z,90.45
2022-11-09T14:32:02.047Z,90.80
2022-11-09T14:34:14.101Z,91.20
2022-11-09T14:36:26.192Z,91.55
2022-11-09T14:38:38.271Z,91.86
2022-11-09T14:40:51.333Z,92.26
2022-11-09T14:43:03.447Z,92.51
2022-11-09T14:45:15.495Z,92.41
2022-11-09T14:47:27.582Z,92.71
2022-11-09T14:49:39.669Z,92.71
2022-11-09T14:51:51.739Z,92.91
2022-11-09T14:54:03.856Z,93.37
2022-11-09T14:56:16.077Z,93.47
2022-11-09T14:58:27.990Z,94.08
2022-11-09T15:00:45.665Z,94.08
2022-11-09T15:02:52.155Z,94.53
2022-11-09T15:05:04.277Z,94.43
2022-11-09T15:07:16.382Z,94.37
2022-11-09T15:09:28.388Z,95.79
2022-11-09T15:11:40.489Z,96.35
2022-11-09T15:13:52.565Z,97.16
2022-11-09T15:16:04.667Z,97.27
2022-11-09T15:18:16.739Z,96.66
2022-11-09T15:20:28.813Z,97.41
2022-11-09T15:21:28.793Z,97.52
2022-11-09T15:23:40.855Z,97.87
2022-11-09T15:25:52.920Z,98.43
2022-11-09T15:28:05.413Z,97.87
2022-11-09T15:30:17.412Z,98.27
2022-11-09T15:32:29.510Z,98.63
2022-11-09T15:34:41.562Z,99.85
2022-11-09T15:36:53.652Z,99.79
2022-11-09T15:39:05.738Z,99.99
2022-11-09T15:41:18.114Z,99.99
2022-11-09T15:43:30.213Z,99.99
2022-11-09T15:45:42.279Z,99.99
2022-11-09T15:47:54.352Z,99.99
2022-11-09T15:50:06.442Z,99.99
2022-11-09T15:52:18.521Z,99.99
2022-11-09T15:54:30.631Z,99.99
2022-11-09T15:56:42.674Z,99.99
2022-11-09T15:58:54.769Z,99.99
2022-11-09T16:01:06.928Z,99.99
2022-11-09T16:03:19.022Z,99.99
2022-11-09T16:05:32.043Z,99.99
2022-11-09T16:07:44.079Z,99.99
2022-11-09T16:09:56.176Z,99.99
2022-11-09T16:12:08.267Z,99.99
2022-11-09T16:14:20.320Z,99.99
2022-11-09T16:16:32.451Z,99.99
2022-11-09T16:18:44.479Z,99.99
2022-11-09T16:20:56.569Z,99.99
2022-11-09T16:23:08.662Z,99.99
2022-11-09T16:25:20.750Z,99.99
2022-11-09T16:27:49.508Z,99.99
2022-11-09T16:29:44.913Z,99.99
2022-11-09T16:31:56.982Z,99.99
2022-11-09T16:34:10.090Z,99.99
2022-11-09T16:36:22.213Z,99.99
2022-11-09T16:38:35.332Z,99.99
2022-11-09T16:40:47.373Z,99.99
2022-11-09T16:43:00.458Z,99.99
2022-11-09T16:45:12.841Z,99.99
2022-11-09T16:47:24.633Z,99.99
2022-11-09T16:49:36.739Z,99.99
2022-11-09T16:51:49.794Z,99.99
2022-11-09T16:54:01.861Z,99.99
2022-11-09T16:56:13.934Z,99.99
2022-11-09T16:58:26.100Z,99.99
2022-11-09T17:00:56.258Z,99.99
2022-11-09T17:01:39.221Z,99.99
2022-11-09T17:03:50.245Z,99.99
2022-11-09T17:06:02.476Z,99.99
2022-11-09T17:08:14.533Z,99.99
2022-11-09T17:10:26.610Z,99.99
2022-11-09T17:12:38.686Z,99.99
2022-11-09T17:14:50.768Z,99.99
2022-11-09T17:17:02.916Z,99.99
2022-11-09T17:19:14.949Z,99.99
2022-11-09T17:21:27.026Z,99.99
2022-11-09T17:23:39.140Z,99.99
2022-11-09T17:25:51.229Z,99.99
2022-11-09T17:28:03.344Z,99.99
2022-11-09T17:30:15.376Z,99.99
2022-11-09T17:32:27.472Z,99.99
2022-11-09T17:34:39.619Z,99.99
2022-11-09T17:37:04.098Z,99.99
2022-11-09T17:39:04.754Z,99.99
2022-11-09T17:41:16.798Z,99.99
2022-11-09T17:43:29.854Z,99.99
2022-11-09T17:45:41.930Z,99.99
2022-11-09T17:47:55.017Z,99.99
2022-11-09T17:50:07.126Z,99.99
2022-11-09T17:52:19.186Z,99.99
2022-11-09T17:54:36.524Z,99.99
2022-11-09T17:56:43.441Z,99.99
2022-11-09T17:58:55.543Z,99.99
2022-11-09T18:01:07.742Z,99.99
2022-11-09T18:03:19.709Z,99.99
2022-11-09T18:05:31.814Z,99.99
2022-11-09T18:07:43.875Z,99.99
2022-11-09T18:09:55.998Z,99.99
2022-11-09T18:12:08.051Z,99.99
2022-11-09T18:14:20.125Z,99.99
2022-11-09T18:16:32.522Z,99.99
2022-11-09T18:18:44.616Z,99.99
2022-11-09T18:20:56.660Z,99.99
2022-11-09T18:23:08.800Z,99.99
2022-11-09T18:25:20.843Z,99.99
2022-11-09T18:27:36.936Z,99.99
2022-11-09T18:29:45.037Z,99.99
2022-11-09T18:31:57.128Z,99.99
2022-11-09T18:34:09.793Z,99.99
2022-11-09T18:36:21.310Z,99.99
2022-11-09T18:38:35.514Z,99.99
2022-11-09T18:40:46.990Z,99.99
2022-11-09T18:42:59.061Z,99.99
2022-11-09T18:45:11.166Z,99.99
2022-11-09T18:47:23.211Z,99.99
2022-11-09T18:49:35.327Z,99.99
2022-11-09T18:51:47.460Z,99.99
2022-11-09T18:53:59.535Z,99.99
2022-11-09T18:56:11.782Z,99.99
2022-11-09T18:58:23.876Z,99.99
2022-11-09T19:00:35.788Z,99.99
2022-11-09T19:02:47.936Z,99.99
2022-11-09T19:05:01.000Z,99.99
2022-11-09T19:06:02.553Z,99.99
2022-11-09T19:08:13.933Z,99.99
2022-11-09T19:10:25.081Z,99.99
2022-11-09T19:12:37.174Z,99.99
2022-11-09T19:14:50.082Z,99.99
2022-11-09T19:17:01.317Z,99.99
2022-11-09T19:19:13.395Z,99.99
2022-11-09T19:21:25.473Z,99.99
2022-11-09T19:23:37.584Z,99.99
2022-11-09T19:25:49.654Z,99.99
2022-11-09T19:28:01.722Z,99.99
2022-11-09T19:30:13.818Z,99.99
2022-11-09T19:32:25.866Z,99.99
2022-11-09T19:34:38.123Z,99.99
2022-11-09T19:36:52.454Z,99.99
2022-11-09T19:39:03.684Z,99.99
2022-11-09T19:41:15.766Z,99.99
2022-11-09T19:43:27.919Z,99.99
2022-11-09T19:45:39.992Z,99.99
2022-11-09T19:47:52.055Z,99.99
2022-11-09T19:50:05.649Z,99.99
2022-11-09T19:52:16.720Z,99.99
2022-11-09T19:54:29.821Z,99.99
2022-11-09T19:56:41.967Z,99.99
2022-11-09T19:58:54.018Z,99.99
2022-11-09T20:01:10.260Z,99.99
2022-11-09T20:02:08.652Z,99.99
2022-11-09T20:04:18.144Z,99.99
2022-11-09T20:06:30.252Z,99.99
2022-11-09T20:08:42.307Z,99.99
2022-11-09T20:10:54.395Z,99.99
2022-11-09T20:13:06.496Z,99.99
2022-11-09T20:15:18.544Z,99.99
2022-11-09T20:17:31.607Z,99.99
2022-11-09T20:19:43.704Z,99.99
2022-11-09T20:21:56.295Z,99.99
2022-11-09T20:24:08.928Z,99.99
2022-11-09T20:26:20.936Z,99.99
2022-11-09T20:28:33.014Z,99.99
2022-11-09T20:30:45.105Z,99.99
2022-11-09T20:32:57.194Z,99.99
2022-11-09T20:35:09.848Z,99.99
2022-11-09T20:37:21.352Z,99.99
2022-11-09T20:39:33.460Z,99.99
2022-11-09T20:41:45.523Z,99.99
2022-11-09T20:43:57.599Z,99.99
2022-11-09T20:46:10.682Z,99.99
2022-11-09T20:48:46.942Z,99.99
2022-11-09T20:50:34.816Z,99.99
2022-11-09T20:52:47.543Z,99.99
2022-11-09T20:54:58.974Z,99.99
2022-11-09T20:57:11.142Z,99.99
2022-11-09T20:59:23.146Z,99.99
2022-11-09T21:01:41.296Z,99.99
2022-11-09T21:03:56.850Z,99.99
2022-11-09T21:06:12.452Z,99.99
2022-11-09T21:08:28.033Z,99.99
2022-11-09T21:10:43.592Z,99.99
2022-11-09T21:12:59.791Z,99.99
2022-11-09T21:15:12.790Z,99.99
2022-11-09T21:17:28.445Z,99.99
2022-11-09T21:19:42.952Z,99.99
2022-11-09T21:21:58.574Z,99.99
2022-11-09T21:24:14.217Z,99.99
2022-11-09T21:26:27.761Z,99.99
2022-11-09T21:28:39.822Z,99.99
2022-11-09T21:30:53.434Z,99.99
2022-11-09T21:33:07.001Z,99.99
2022-11-09T21:35:20.578Z,99.99
2022-11-09T21:37:34.164Z,99.99
2022-11-09T21:39:46.250Z,99.99
2022-11-09T21:41:58.342Z,99.99
2022-11-09T21:44:11.269Z,99.99
2022-11-09T21:46:22.489Z,99.99
2022-11-09T21:48:35.658Z,99.99
2022-11-09T21:50:48.371Z,99.99
2022-11-09T21:53:00.873Z,99.99
2022-11-09T21:55:12.929Z,99.99
2022-11-09T21:57:24.946Z,99.99
2022-11-09T21:59:41.151Z,99.99
2022-11-09T22:01:52.640Z,99.99
2022-11-09T22:04:02.728Z,99.99
2022-11-09T22:06:16.349Z,99.99
2022-11-09T22:08:29.507Z,99.99
2022-11-09T22:10:43.127Z,99.99
2022-11-09T22:12:55.185Z,99.99
2022-11-09T22:15:08.781Z,99.99
2022-11-09T22:17:21.833Z,99.99
2022-11-09T22:19:33.936Z,99.99
2022-11-09T22:21:45.987Z,99.99
2022-11-09T22:23:58.086Z,99.99
2022-11-09T22:26:11.175Z,99.99
2022-11-09T22:28:24.212Z,99.99
2022-11-09T22:30:37.283Z,99.99
2022-11-09T22:32:50.870Z,99.99
2022-11-09T22:35:02.952Z,99.99
2022-11-09T22:37:16.588Z,99.99
2022-11-09T22:39:30.148Z,99.99
2022-11-09T22:41:42.226Z,99.99
2022-11-09T22:43:55.812Z,99.99
2022-11-09T22:46:09.394Z,99.99
2022-11-09T22:48:22.508Z,99.99
2022-11-09T22:50:36.076Z,99.99
2022-11-09T22:52:53.328Z,99.99
2022-11-09T22:55:01.729Z,99.78
2022-11-09T22:56:01.730Z,99.47
2022-11-09T22:58:15.313Z,99.47
2022-11-09T23:00:27.388Z,98.96
2022-11-09T23:02:40.967Z,98.24
2022-11-09T23:04:54.355Z,97.22
2022-11-09T23:07:08.020Z,97.42
2022-11-09T23:09:21.639Z,98.75
2022-11-09T23:11:33.701Z,99.11
2022-11-09T23:13:47.300Z,99.66
2022-11-09T23:15:59.382Z,98.70
2022-11-09T23:18:12.434Z,99.62
2022-11-09T23:20:24.530Z,99.99
2022-11-09T23:22:36.620Z,99.99
2022-11-09T23:24:51.198Z,99.66
2022-11-09T23:27:04.313Z,98.90
2022-11-09T23:29:17.868Z,97.83
2022-11-09T23:31:29.951Z,97.53
2022-11-09T23:33:42.017Z,96.81
2022-11-09T23:35:54.114Z,97.22
2022-11-09T23:38:07.722Z,95.79
2022-11-09T23:40:21.286Z,96.10
2022-11-09T23:42:33.338Z,96.45
2022-11-09T23:44:46.927Z,96.04
2022-11-09T23:46:59.030Z,96.14
2022-11-09T23:49:11.120Z,97.12
2022-11-09T23:51:23.182Z,96.75
2022-11-09T23:53:35.262Z,97.37
2022-11-09T23:55:48.337Z,97.67
2022-11-09T23:58:00.420Z,98.29
